Time;durP1;ratioP1;P1;durP2;ratioP2;P2;SDS_P1;SDS_P2;PMS_P1;PMS_P2;Temp;Humidity;BMP_temperature;BMP_pressure;BME280_temperature;BME280_humidity;BME280_pressure;Samples;Min_cycle;Max_cycle;Signal;HPM_P1;HPM_P2
2021/12/08 00:01:11;;;;;;;4.97;2.30;;;;;;;;;;4928175;29;20226;-75
2021/12/08 00:03:38;;;;;;;8.43;3.50;;;;;;;;;;4930096;29;20205;-75
2021/12/08 00:06:05;;;;;;;4.10;2.13;;;;;;;;;;4927048;29;20333;-75
2021/12/08 00:08:33;;;;;;;6.73;2.20;;;;;;;;;;4928539;29;20217;-75
2021/12/08 00:13:28;;;;;;;4.20;1.80;;;;;;;;;;4934832;29;20281;-75
2021/12/08 00:15:57;;;;;;;3.90;2.53;;;;;;;;;;4928202;29;20530;-75
2021/12/08 00:18:25;;;;;;;3.97;2.13;;;;;;;;;;4929160;29;20305;-75
2021/12/08 00:20:53;;;;;;;3.03;1.93;;;;;;;;;;4928213;29;20186;-75
2021/12/08 00:23:20;;;;;;;10.43;5.07;;;;;;;;;;4912159;29;20225;-75
2021/12/08 00:25:46;;;;;;;2.97;2.00;;;;;;;;;;4933580;29;20196;-75
2021/12/08 00:28:12;;;;;;;6.93;3.80;;;;;;;;;;4897380;29;20733;-75
2021/12/08 00:30:40;;;;;;;6.23;3.30;;;;;;;;;;4933377;29;20237;-75
2021/12/08 00:33:07;;;;;;;4.60;2.40;;;;;;;;;;4930491;29;20189;-75
2021/12/08 00:35:33;;;;;;;3.57;1.90;;;;;;;;;;4915097;29;21084;-75
2021/12/08 00:38:00;;;;;;;4.57;2.80;;;;;;;;;;4929686;29;20268;-75
2021/12/08 00:40:30;;;;;;;4.10;2.47;;;;;;;;;;4932433;29;20186;-75
2021/12/08 00:42:57;;;;;;;3.13;2.10;;;;;;;;;;4931418;29;20192;-75
2021/12/08 00:45:24;;;;;;;4.33;2.00;;;;;;;;;;4926307;29;20243;-75
2021/12/08 00:47:51;;;;;;;5.10;2.30;;;;;;;;;;4914881;29;20737;-75
2021/12/08 00:50:18;;;;;;;4.27;2.00;;;;;;;;;;4946022;29;20216;-75
2021/12/08 00:52:44;;;;;;;5.03;2.23;;;;;;;;;;4935422;29;20190;-75
2021/12/08 00:55:11;;;;;;;3.83;1.80;;;;;;;;;;4935141;29;20193;-75
2021/12/08 00:57:38;;;;;;;3.03;1.97;;;;;;;;;;4932991;29;20271;-75
2021/12/08 01:00:06;;;;;;;8.27;3.90;;;;;;;;;;4932318;29;20249;-75
2021/12/08 01:02:33;;;;;;;10.03;4.60;;;;;;;;;;4931817;29;20194;-75
2021/12/08 01:05:00;;;;;;;5.20;2.50;;;;;;;;;;4940027;29;20268;-75
2021/12/08 01:07:30;;;;;;;4.60;2.50;;;;;;;;;;4915435;29;20221;-74
2021/12/08 01:09:56;;;;;;;3.37;1.83;;;;;;;;;;4935505;29;20214;-75
2021/12/08 01:12:22;;;;;;;4.07;2.00;;;;;;;;;;4934821;29;20190;-75
2021/12/08 01:14:48;;;;;;;7.07;3.80;;;;;;;;;;4929817;29;20182;-75
2021/12/08 01:17:14;;;;;;;4.47;2.37;;;;;;;;;;4937454;28;20248;-75
2021/12/08 01:19:41;;;;;;;5.40;2.90;;;;;;;;;;4922201;29;20182;-75
2021/12/08 01:22:07;;;;;;;3.17;1.97;;;;;;;;;;4935827;29;20503;-75
2021/12/08 01:24:33;;;;;;;3.50;2.40;;;;;;;;;;4924802;29;20206;-75
2021/12/08 01:26:59;;;;;;;4.13;2.20;;;;;;;;;;4905911;29;20212;-75
2021/12/08 01:29:25;;;;;;;3.93;2.20;;;;;;;;;;4919470;29;20220;-75
2021/12/08 01:31:52;;;;;;;4.40;2.07;;;;;;;;;;4926074;29;20182;-75
2021/12/08 01:34:18;;;;;;;3.10;2.07;;;;;;;;;;4923879;29;20607;-75
2021/12/08 01:36:44;;;;;;;5.13;2.20;;;;;;;;;;4934789;29;20189;-75
2021/12/08 01:39:10;;;;;;;5.17;2.30;;;;;;;;;;4926562;29;20201;-75
2021/12/08 01:41:37;;;;;;;3.80;2.33;;;;;;;;;;4919078;29;20647;-75
2021/12/08 01:46:51;;;;;;;3.23;2.10;;;;;;;;;;4936801;29;20194;-75
2021/12/08 01:49:17;;;;;;;3.20;2.10;;;;;;;;;;4937183;29;20212;-75
2021/12/08 01:51:44;;;;;;;3.07;1.90;;;;;;;;;;4934806;29;20686;-75
2021/12/08 01:54:10;;;;;;;3.97;1.97;;;;;;;;;;4930321;29;20186;-75
2021/12/08 01:56:37;;;;;;;4.13;2.10;;;;;;;;;;4916612;29;20241;-75
2021/12/08 01:59:04;;;;;;;4.90;2.10;;;;;;;;;;4922503;29;20207;-75
2021/12/08 02:01:34;;;;;;;3.87;1.93;;;;;;;;;;4935009;29;20646;-75
2021/12/08 02:04:04;;;;;;;3.57;2.00;;;;;;;;;;4936995;29;20213;-75
2021/12/08 02:06:31;;;;;;;3.00;2.07;;;;;;;;;;4916695;29;20200;-75
2021/12/08 02:08:58;;;;;;;2.87;1.77;;;;;;;;;;4918453;29;20206;-75
2021/12/08 02:11:24;;;;;;;3.37;2.30;;;;;;;;;;4934914;29;20237;-75
2021/12/08 02:13:52;;;;;;;5.97;2.80;;;;;;;;;;4935038;29;20540;-75
2021/12/08 02:16:19;;;;;;;4.97;2.07;;;;;;;;;;4932396;29;20190;-75
2021/12/08 02:18:52;;;;;;;6.10;3.07;;;;;;;;;;4933996;29;20728;-75
2021/12/08 02:21:23;;;;;;;3.27;2.00;;;;;;;;;;4916573;29;20192;-75
2021/12/08 02:23:50;;;;;;;5.93;2.33;;;;;;;;;;4939635;29;20189;-75
2021/12/08 02:26:16;;;;;;;4.03;2.20;;;;;;;;;;4936719;29;20232;-75
2021/12/08 02:28:43;;;;;;;5.00;2.60;;;;;;;;;;4940365;29;20208;-75
2021/12/08 02:31:13;;;;;;;4.00;2.20;;;;;;;;;;4938416;29;20217;-75
2021/12/08 02:50:24;;;;;;;6.73;2.53;;;;;;;;;;4934425;29;20698;-75
2021/12/08 02:52:50;;;;;;;3.83;2.10;;;;;;;;;;4921403;29;20185;-75
2021/12/08 02:55:17;;;;;;;2.13;1.70;;;;;;;;;;4946599;29;20201;-75
2021/12/08 02:57:43;;;;;;;4.50;2.30;;;;;;;;;;4933788;29;20756;-75
2021/12/08 03:00:11;;;;;;;6.03;2.60;;;;;;;;;;4929594;29;20200;-75
2021/12/08 03:02:37;;;;;;;5.13;2.60;;;;;;;;;;4937680;29;20182;-75
2021/12/08 03:05:04;;;;;;;3.97;2.13;;;;;;;;;;4942790;29;20616;-75
2021/12/08 03:07:30;;;;;;;2.90;1.70;;;;;;;;;;4936295;29;20296;-75
2021/12/08 03:10:01;;;;;;;3.17;1.70;;;;;;;;;;4933628;29;20214;-75
2021/12/08 03:12:30;;;;;;;2.27;1.73;;;;;;;;;;4937070;29;20182;-75
2021/12/08 03:14:57;;;;;;;1.63;1.53;;;;;;;;;;4928192;29;20196;-75
2021/12/08 03:17:23;;;;;;;2.50;1.70;;;;;;;;;;4939395;29;20182;-75
2021/12/08 03:19:50;;;;;;;2.67;2.20;;;;;;;;;;4935261;29;20218;-75
2021/12/08 03:22:16;;;;;;;2.93;1.90;;;;;;;;;;4936249;29;20190;-75
2021/12/08 03:24:45;;;;;;;3.33;1.77;;;;;;;;;;4939945;29;20212;-75
2021/12/08 03:27:15;;;;;;;2.53;1.60;;;;;;;;;;4940389;29;20189;-75
2021/12/08 03:32:24;;;;;;;2.53;1.60;;;;;;;;;;4928384;29;20688;-75
2021/12/08 03:34:51;;;;;;;2.33;1.60;;;;;;;;;;4920023;29;20221;-75
2021/12/08 03:37:20;;;;;;;1.90;1.53;;;;;;;;;;4946923;29;20515;-75
2021/12/08 03:39:48;;;;;;;2.90;1.50;;;;;;;;;;4933471;29;20181;-75
2021/12/08 03:42:14;;;;;;;3.67;1.90;;;;;;;;;;4928270;29;20241;-75
2021/12/08 03:44:41;;;;;;;2.60;1.50;;;;;;;;;;4932173;29;20273;-75
2021/12/08 03:47:16;;;;;;;2.57;1.70;;;;;;;;;;4933132;29;20740;-75
2021/12/08 03:49:44;;;;;;;4.27;1.63;;;;;;;;;;4930407;29;20190;-75
2021/12/08 03:52:10;;;;;;;3.30;1.90;;;;;;;;;;4940388;29;20186;-75
2021/12/08 03:54:36;;;;;;;1.83;1.40;;;;;;;;;;4931818;29;20190;-75
2021/12/08 03:57:03;;;;;;;3.07;2.00;;;;;;;;;;4931866;29;20182;-75
2021/12/08 03:59:29;;;;;;;2.10;1.63;;;;;;;;;;4935086;29;20213;-75
2021/12/08 04:01:56;;;;;;;2.40;1.57;;;;;;;;;;4937168;29;20228;-75
2021/12/08 04:04:26;;;;;;;2.70;1.57;;;;;;;;;;4932636;29;20682;-75
2021/12/08 04:06:53;;;;;;;2.97;1.83;;;;;;;;;;4933702;29;20673;-75
2021/12/08 04:09:36;;;;;;;2.70;1.80;;;;;;;;;;4916516;29;20274;-75
2021/12/08 04:12:03;;;;;;;2.10;1.63;;;;;;;;;;4934442;29;20189;-75
2021/12/08 04:14:32;;;;;;;2.70;1.77;;;;;;;;;;4930531;29;20186;-75
2021/12/08 04:17:03;;;;;;;3.67;1.83;;;;;;;;;;4935711;29;20322;-75
2021/12/08 04:19:30;;;;;;;2.50;1.60;;;;;;;;;;4933212;29;20182;-75
2021/12/08 04:21:58;;;;;;;2.70;1.90;;;;;;;;;;4909433;29;20281;-75
2021/12/08 04:24:25;;;;;;;2.63;1.67;;;;;;;;;;4944804;29;20192;-75
2021/12/08 04:26:55;;;;;;;2.57;1.80;;;;;;;;;;4933121;29;20186;-75
2021/12/08 04:29:26;;;;;;;2.57;1.90;;;;;;;;;;4933120;29;20216;-75
2021/12/08 04:31:53;;;;;;;2.33;1.60;;;;;;;;;;4934203;29;20272;-75
2021/12/08 04:34:24;;;;;;;2.80;1.80;;;;;;;;;;4945086;29;20737;-75
2021/12/08 04:36:52;;;;;;;3.17;1.97;;;;;;;;;;4933457;29;20185;-75
2021/12/08 04:39:48;;;;;;;3.17;1.93;;;;;;;;;;4923282;29;20209;-75
2021/12/08 04:42:19;;;;;;;4.27;1.90;;;;;;;;;;4934610;29;20182;-75
2021/12/08 04:44:56;;;;;;;4.30;1.93;;;;;;;;;;4934904;29;20216;-75
2021/12/08 04:47:34;;;;;;;2.67;2.00;;;;;;;;;;4945279;28;20207;-75
2021/12/08 05:08:51;;;;;;;2.87;2.07;;;;;;;;;;4934884;29;20201;-75
2021/12/08 05:11:23;;;;;;;2.50;1.93;;;;;;;;;;4936247;29;20581;-75
2021/12/08 05:13:51;;;;;;;2.87;2.17;;;;;;;;;;4919252;29;20186;-75
2021/12/08 05:16:17;;;;;;;4.20;2.07;;;;;;;;;;4931570;29;20721;-75
2021/12/08 05:18:45;;;;;;;4.27;3.13;;;;;;;;;;4937062;29;20204;-75
2021/12/08 05:21:11;;;;;;;4.13;2.80;;;;;;;;;;4924315;29;20201;-75
2021/12/08 05:23:47;;;;;;;3.97;2.37;;;;;;;;;;4932410;29;20189;-75
2021/12/08 05:26:15;;;;;;;3.97;2.57;;;;;;;;;;4930212;29;20634;-75
2021/12/08 05:28:43;;;;;;;3.70;2.40;;;;;;;;;;4929527;29;20512;-75
2021/12/08 05:31:15;;;;;;;3.93;2.23;;;;;;;;;;4915823;29;20221;-75
2021/12/08 05:33:42;;;;;;;4.47;2.77;;;;;;;;;;4938880;29;20669;-75
2021/12/08 05:36:10;;;;;;;4.50;2.13;;;;;;;;;;4919999;29;20592;-75
2021/12/08 05:38:37;;;;;;;5.20;4.47;;;;;;;;;;4936219;29;20225;-75
2021/12/08 05:41:03;;;;;;;4.53;2.90;;;;;;;;;;4933883;29;20206;-75
2021/12/08 05:43:29;;;;;;;2.70;2.40;;;;;;;;;;4930985;29;20256;-75
2021/12/08 05:45:56;;;;;;;3.87;2.30;;;;;;;;;;4941637;29;20221;-75
2021/12/08 05:48:22;;;;;;;3.07;2.60;;;;;;;;;;4936400;29;20688;-75
2021/12/08 05:50:52;;;;;;;6.20;2.60;;;;;;;;;;4935571;29;20220;-75
2021/12/08 05:53:18;;;;;;;2.87;2.57;;;;;;;;;;4936234;29;20178;-75
2021/12/08 05:55:45;;;;;;;4.70;2.67;;;;;;;;;;4940606;29;20185;-75
2021/12/08 05:58:11;;;;;;;3.53;2.70;;;;;;;;;;4915312;29;20712;-75
2021/12/08 06:00:44;;;;;;;3.83;2.70;;;;;;;;;;4932254;29;20674;-75
2021/12/08 06:03:11;;;;;;;3.47;2.60;;;;;;;;;;4919169;29;20194;-75
2021/12/08 06:05:37;;;;;;;3.40;2.57;;;;;;;;;;4935026;29;20197;-75
2021/12/08 06:08:04;;;;;;;3.47;2.77;;;;;;;;;;4932804;29;20205;-75
2021/12/08 06:10:32;;;;;;;3.47;2.73;;;;;;;;;;4931287;29;20220;-75
2021/12/08 06:12:58;;;;;;;3.70;2.80;;;;;;;;;;4932588;29;20196;-76
2021/12/08 06:15:26;;;;;;;3.60;2.70;;;;;;;;;;4915002;29;20700;-77
2021/12/08 06:17:53;;;;;;;3.27;2.90;;;;;;;;;;4933084;29;20202;-77
2021/12/08 06:20:20;;;;;;;4.50;3.00;;;;;;;;;;4930259;29;20220;-77
2021/12/08 06:22:47;;;;;;;6.80;3.03;;;;;;;;;;4929309;29;20190;-77
2021/12/08 06:25:14;;;;;;;3.60;3.00;;;;;;;;;;4934413;29;20236;-75
2021/12/08 06:27:41;;;;;;;5.70;3.30;;;;;;;;;;4935502;29;20222;-76
2021/12/08 06:30:08;;;;;;;6.10;3.50;;;;;;;;;;4917019;29;20209;-73
2021/12/08 06:32:34;;;;;;;4.63;3.20;;;;;;;;;;4936441;29;20228;-74
2021/12/08 06:35:01;;;;;;;4.93;3.33;;;;;;;;;;4948087;29;20240;-74
2021/12/08 06:37:31;;;;;;;5.43;3.23;;;;;;;;;;4932363;29;20197;-73
2021/12/08 06:39:57;;;;;;;3.90;3.13;;;;;;;;;;4939818;29;20192;-77
2021/12/08 06:42:27;;;;;;;3.43;2.83;;;;;;;;;;4933490;29;20681;-78
2021/12/08 06:44:53;;;;;;;3.60;2.97;;;;;;;;;;4934636;29;20557;-76
2021/12/08 06:47:21;;;;;;;4.97;3.30;;;;;;;;;;4930131;29;20325;-77
2021/12/08 06:49:48;;;;;;;5.03;3.50;;;;;;;;;;4931118;29;20584;-78
2021/12/08 06:52:21;;;;;;;3.40;3.00;;;;;;;;;;4951165;29;20189;-76
2021/12/08 06:54:50;;;;;;;4.87;3.10;;;;;;;;;;4903426;29;20323;-77
2021/12/08 06:57:20;;;;;;;4.07;3.13;;;;;;;;;;4945706;29;20260;-77
2021/12/08 06:59:58;;;;;;;5.27;3.57;;;;;;;;;;4919704;29;20193;-76
2021/12/08 07:05:42;;;;;;;4.50;3.20;;;;;;;;;;4920139;29;20193;-76
2021/12/08 07:08:09;;;;;;;3.83;3.23;;;;;;;;;;4946465;28;20262;-77
2021/12/08 07:10:37;;;;;;;5.47;3.93;;;;;;;;;;4918930;29;20248;-77
2021/12/08 07:13:05;;;;;;;5.33;3.97;;;;;;;;;;4942750;29;20677;-77
2021/12/08 07:15:45;;;;;;;4.83;3.83;;;;;;;;;;4930460;29;20879;-77
2021/12/08 07:18:15;;;;;;;6.13;4.03;;;;;;;;;;4936567;28;20205;-76
2021/12/08 07:20:46;;;;;;;6.47;3.80;;;;;;;;;;4948546;29;20306;-77
2021/12/08 07:23:15;;;;;;;5.30;3.53;;;;;;;;;;4935826;29;20213;-77
2021/12/08 07:25:43;;;;;;;4.73;3.30;;;;;;;;;;4938619;29;20197;-77
2021/12/08 07:28:10;;;;;;;5.13;3.17;;;;;;;;;;4943004;29;20217;-77
2021/12/08 07:30:40;;;;;;;6.67;3.43;;;;;;;;;;4936025;29;20209;-77
2021/12/08 07:33:07;;;;;;;4.03;3.30;;;;;;;;;;4936195;29;20189;-77
2021/12/08 07:35:39;;;;;;;8.03;3.67;;;;;;;;;;4936285;29;20265;-77
2021/12/08 07:38:07;;;;;;;6.87;3.57;;;;;;;;;;4941134;29;20212;-77
2021/12/08 07:40:36;;;;;;;6.07;3.63;;;;;;;;;;4922295;29;20268;-77
2021/12/08 07:43:05;;;;;;;15.07;9.70;;;;;;;;;;4940800;29;20249;-77
2021/12/08 07:45:47;;;;;;;7.97;5.60;;;;;;;;;;4920736;29;20650;-77
2021/12/08 07:48:16;;;;;;;7.53;5.30;;;;;;;;;;4916631;29;20725;-77
2021/12/08 07:50:45;;;;;;;8.53;6.33;;;;;;;;;;4934420;29;20217;-77
2021/12/08 07:53:14;;;;;;;10.03;6.40;;;;;;;;;;4936778;29;20622;-77
2021/12/08 07:55:45;;;;;;;8.50;6.13;;;;;;;;;;4931187;29;20534;-77
2021/12/08 07:58:13;;;;;;;12.57;8.63;;;;;;;;;;4934366;29;20212;-77
2021/12/08 08:00:41;;;;;;;17.23;11.93;;;;;;;;;;4892968;29;20191;-79
2021/12/08 08:03:07;;;;;;;11.20;8.20;;;;;;;;;;4926472;29;20194;-80
2021/12/08 08:05:34;;;;;;;13.47;9.80;;;;;;;;;;4909090;29;20217;-80
2021/12/08 08:08:03;;;;;;;11.93;7.87;;;;;;;;;;4913819;29;20642;-80
2021/12/08 08:10:30;;;;;;;17.60;11.40;;;;;;;;;;4935679;29;20213;-80
2021/12/08 08:13:00;;;;;;;19.73;12.00;;;;;;;;;;4916528;29;20185;-80
2021/12/08 08:15:29;;;;;;;12.60;9.00;;;;;;;;;;4941025;29;20182;-80
2021/12/08 08:17:55;;;;;;;15.47;10.20;;;;;;;;;;4937256;29;20206;-81
2021/12/08 08:20:32;;;;;;;7.43;5.80;;;;;;;;;;4938120;29;20253;-80
2021/12/08 08:23:00;;;;;;;9.70;6.40;;;;;;;;;;4936006;29;20189;-80
2021/12/08 08:25:28;;;;;;;10.83;7.53;;;;;;;;;;4925433;29;20275;-79
2021/12/08 08:27:54;;;;;;;15.27;10.13;;;;;;;;;;4915676;29;20316;-80
2021/12/08 08:30:24;;;;;;;19.93;12.17;;;;;;;;;;4913976;29;20209;-80
2021/12/08 08:32:51;;;;;;;14.43;8.93;;;;;;;;;;4936184;29;20171;-80
2021/12/08 08:35:26;;;;;;;10.10;6.80;;;;;;;;;;4936016;29;20575;-80
2021/12/08 08:37:54;;;;;;;7.47;4.53;;;;;;;;;;4924665;29;20225;-79
2021/12/08 08:40:26;;;;;;;13.00;5.90;;;;;;;;;;4936253;29;20201;-79
2021/12/08 08:42:53;;;;;;;11.27;5.50;;;;;;;;;;4921159;29;20276;-79
2021/12/08 08:45:25;;;;;;;6.93;4.53;;;;;;;;;;4919961;29;20186;-80
2021/12/08 08:47:54;;;;;;;8.40;4.53;;;;;;;;;;4934207;29;20631;-79
2021/12/08 08:50:24;;;;;;;6.87;4.93;;;;;;;;;;4923018;29;20693;-79
2021/12/08 08:52:52;;;;;;;12.20;6.70;;;;;;;;;;4941933;29;20216;-80
2021/12/08 08:55:27;;;;;;;7.17;4.37;;;;;;;;;;4935629;29;20253;-80
2021/12/08 08:57:53;;;;;;;8.87;3.80;;;;;;;;;;4894311;29;20200;-80
2021/12/08 09:00:31;;;;;;;9.50;4.90;;;;;;;;;;4948132;29;20212;-80
2021/12/08 09:02:59;;;;;;;8.93;5.13;;;;;;;;;;4913284;29;20205;-81
2021/12/08 09:05:30;;;;;;;9.47;5.30;;;;;;;;;;4935024;29;20193;-80
2021/12/08 09:07:57;;;;;;;9.40;5.23;;;;;;;;;;4934867;29;20256;-80
2021/12/08 09:10:35;;;;;;;7.93;4.20;;;;;;;;;;4934036;29;20253;-80
2021/12/08 09:13:04;;;;;;;5.87;3.57;;;;;;;;;;4941081;29;20194;-81
2021/12/08 09:15:33;;;;;;;4.47;3.30;;;;;;;;;;4933135;29;20618;-82
2021/12/08 09:18:06;;;;;;;7.43;4.77;;;;;;;;;;4950896;28;20208;-82
2021/12/08 09:20:35;;;;;;;5.33;3.83;;;;;;;;;;4953167;29;20177;-82
2021/12/08 09:23:07;;;;;;;7.03;4.80;;;;;;;;;;4933933;29;20200;-81
2021/12/08 09:25:36;;;;;;;7.23;4.53;;;;;;;;;;4939864;29;20192;-81
2021/12/08 09:28:08;;;;;;;6.33;4.13;;;;;;;;;;4885707;29;20230;-81
2021/12/08 09:30:43;;;;;;;6.00;3.23;;;;;;;;;;4900099;29;20661;-81
2021/12/08 09:33:13;;;;;;;4.87;3.33;;;;;;;;;;4911336;29;20272;-81
2021/12/08 09:35:48;;;;;;;5.97;3.97;;;;;;;;;;4920385;29;20676;-82
2021/12/08 09:38:18;;;;;;;5.30;3.63;;;;;;;;;;4944760;29;20287;-81
2021/12/08 09:40:58;;;;;;;4.20;3.40;;;;;;;;;;4920434;29;20556;-81
2021/12/08 09:43:28;;;;;;;5.27;3.70;;;;;;;;;;4913752;29;20538;-81
2021/12/08 09:46:00;;;;;;;7.87;4.37;;;;;;;;;;4933437;29;20539;-81
2021/12/08 09:48:29;;;;;;;6.67;4.00;;;;;;;;;;4936269;29;20208;-81
2021/12/08 09:50:59;;;;;;;6.90;3.80;;;;;;;;;;4939112;29;20627;-80
2021/12/08 09:53:26;;;;;;;7.27;4.20;;;;;;;;;;4905712;29;20173;-81
2021/12/08 09:55:52;;;;;;;6.87;3.93;;;;;;;;;;4953702;29;20192;-81
2021/12/08 09:58:19;;;;;;;6.27;3.80;;;;;;;;;;4925776;29;20206;-80
2021/12/08 10:00:46;;;;;;;6.77;3.60;;;;;;;;;;4911355;29;20188;-81
2021/12/08 10:03:14;;;;;;;6.73;4.40;;;;;;;;;;4952471;29;20213;-81
2021/12/08 10:05:41;;;;;;;4.40;3.87;;;;;;;;;;4936816;29;20201;-81
2021/12/08 10:08:08;;;;;;;6.50;3.73;;;;;;;;;;4946889;28;20216;-80
2021/12/08 10:10:35;;;;;;;5.33;3.60;;;;;;;;;;4922508;29;20264;-80
2021/12/08 10:13:01;;;;;;;4.93;3.50;;;;;;;;;;4905979;29;20185;-81
2021/12/08 10:15:27;;;;;;;8.30;3.70;;;;;;;;;;4932872;29;20916;-81
2021/12/08 10:17:55;;;;;;;5.90;3.77;;;;;;;;;;4938342;29;20728;-80
2021/12/08 10:20:24;;;;;;;5.03;3.80;;;;;;;;;;4921228;29;20200;-80
2021/12/08 10:23:09;;;;;;;6.53;4.10;;;;;;;;;;4912842;29;20192;-80
2021/12/08 10:25:37;;;;;;;5.30;3.77;;;;;;;;;;4953962;29;20187;-80
2021/12/08 10:28:03;;;;;;;6.00;3.97;;;;;;;;;;4939385;29;20232;-81
2021/12/08 10:30:30;;;;;;;7.43;3.93;;;;;;;;;;4936245;29;20588;-81
2021/12/08 10:32:56;;;;;;;5.73;4.30;;;;;;;;;;4917030;29;20186;-82
2021/12/08 10:35:43;;;;;;;4.87;4.13;;;;;;;;;;4937811;29;20577;-82
2021/12/08 10:38:11;;;;;;;5.80;3.93;;;;;;;;;;4935694;29;20198;-82
2021/12/08 10:40:37;;;;;;;6.70;4.70;;;;;;;;;;4941926;29;20217;-82
2021/12/08 10:43:14;;;;;;;6.10;4.47;;;;;;;;;;4938276;29;20186;-82
2021/12/08 10:45:40;;;;;;;6.43;4.60;;;;;;;;;;4947943;29;20182;-82
2021/12/08 10:48:07;;;;;;;8.50;5.53;;;;;;;;;;4946817;28;20231;-82
2021/12/08 10:56:09;;;;;;;7.50;4.83;;;;;;;;;;4917263;29;20610;-82
2021/12/08 10:58:39;;;;;;;6.27;4.50;;;;;;;;;;4887726;29;20204;-82
2021/12/08 11:01:13;;;;;;;5.13;3.90;;;;;;;;;;4920031;29;20281;-82
2021/12/08 11:03:39;;;;;;;5.03;4.07;;;;;;;;;;4938004;29;20247;-82
2021/12/08 11:06:06;;;;;;;5.60;4.37;;;;;;;;;;4906265;29;20189;-82
2021/12/08 11:08:40;;;;;;;6.87;4.30;;;;;;;;;;4925244;29;20248;-82
2021/12/08 11:11:13;;;;;;;6.50;4.60;;;;;;;;;;4909850;29;20227;-83
2021/12/08 11:13:44;;;;;;;7.33;4.53;;;;;;;;;;4922485;29;20224;-80
2021/12/08 11:16:23;;;;;;;5.80;4.80;;;;;;;;;;4920361;29;20269;-79
2021/12/08 11:18:50;;;;;;;6.30;5.13;;;;;;;;;;4945204;29;20293;-78
2021/12/08 11:21:24;;;;;;;8.37;4.87;;;;;;;;;;4913876;29;20257;-81
2021/12/08 11:23:52;;;;;;;6.30;4.83;;;;;;;;;;4918969;29;20198;-84
2021/12/08 11:26:18;;;;;;;5.87;4.67;;;;;;;;;;4917394;29;20313;-80
2021/12/08 11:28:46;;;;;;;6.93;4.80;;;;;;;;;;4935427;28;20641;-80
2021/12/08 11:31:16;;;;;;;7.77;5.50;;;;;;;;;;4925946;29;20222;-80
2021/12/08 11:33:48;;;;;;;7.67;5.23;;;;;;;;;;4937945;29;20226;-80
2021/12/08 11:36:19;;;;;;;8.43;5.43;;;;;;;;;;4938123;29;20243;-80
2021/12/08 11:38:46;;;;;;;6.13;5.00;;;;;;;;;;4904446;29;20214;-80
2021/12/08 11:41:34;;;;;;;8.33;5.67;;;;;;;;;;4936027;29;20292;-80
2021/12/08 11:44:01;;;;;;;6.37;5.27;;;;;;;;;;4938667;29;20211;-80
2021/12/08 11:46:27;;;;;;;8.97;6.27;;;;;;;;;;4922664;29;20245;-80
2021/12/08 11:48:59;;;;;;;8.27;5.70;;;;;;;;;;4951237;28;20288;-79
2021/12/08 11:51:25;;;;;;;8.60;6.40;;;;;;;;;;4924651;29;20580;-81
2021/12/08 11:53:52;;;;;;;10.23;6.03;;;;;;;;;;4917625;29;20680;-81
2021/12/08 11:56:36;;;;;;;6.53;5.77;;;;;;;;;;4945083;29;20185;-80
2021/12/08 11:59:04;;;;;;;7.97;6.10;;;;;;;;;;4935972;29;20296;-77
2021/12/08 12:01:31;;;;;;;7.27;5.40;;;;;;;;;;4940483;29;20218;-80
2021/12/08 12:03:57;;;;;;;8.40;5.80;;;;;;;;;;4920472;29;20192;-76
2021/12/08 12:06:28;;;;;;;7.77;5.90;;;;;;;;;;4949247;29;20192;-79
2021/12/08 12:08:59;;;;;;;8.73;5.73;;;;;;;;;;4915401;29;20209;-83
2021/12/08 12:11:29;;;;;;;7.77;5.50;;;;;;;;;;4921955;29;20214;-80
2021/12/08 12:13:56;;;;;;;7.83;5.53;;;;;;;;;;4929193;29;20189;-81
2021/12/08 12:16:23;;;;;;;9.97;6.10;;;;;;;;;;4924095;29;20636;-82
2021/12/08 12:18:52;;;;;;;9.23;6.27;;;;;;;;;;4920592;29;20217;-82
2021/12/08 12:21:24;;;;;;;7.90;6.27;;;;;;;;;;4920536;29;20224;-82
2021/12/08 12:24:02;;;;;;;8.53;6.03;;;;;;;;;;4935812;29;20189;-82
2021/12/08 12:26:43;;;;;;;8.63;5.90;;;;;;;;;;4890581;29;20217;-84
2021/12/08 12:29:22;;;;;;;8.60;5.80;;;;;;;;;;4936882;28;20592;-87
2021/12/08 12:32:00;;;;;;;9.07;5.90;;;;;;;;;;4929306;29;20280;-85
2021/12/08 12:34:37;;;;;;;8.60;6.00;;;;;;;;;;4914224;29;20716;-82
2021/12/08 12:37:05;;;;;;;7.73;6.20;;;;;;;;;;4919041;29;20689;-85
2021/12/08 12:39:32;;;;;;;6.10;5.47;;;;;;;;;;4920840;29;20270;-82
2021/12/08 12:42:09;;;;;;;7.00;5.60;;;;;;;;;;4904404;29;20194;-83
2021/12/08 12:44:36;;;;;;;7.27;5.93;;;;;;;;;;4941929;29;20273;-82
2021/12/08 12:47:09;;;;;;;8.23;6.23;;;;;;;;;;4916785;29;20277;-82
2021/12/08 12:49:36;;;;;;;6.70;5.73;;;;;;;;;;4918341;29;20301;-82
2021/12/08 12:52:07;;;;;;;7.30;5.83;;;;;;;;;;4915151;29;20220;-81
2021/12/08 12:54:33;;;;;;;7.67;5.67;;;;;;;;;;4932101;29;20194;-81
2021/12/08 12:57:00;;;;;;;8.30;6.30;;;;;;;;;;4936864;29;20241;-82
2021/12/08 12:59:44;;;;;;;8.53;6.03;;;;;;;;;;4917475;29;20200;-82
2021/12/08 13:02:21;;;;;;;8.47;5.90;;;;;;;;;;4903580;29;20196;-82
2021/12/08 13:04:56;;;;;;;8.90;5.80;;;;;;;;;;4923442;29;20272;-82
2021/12/08 13:07:22;;;;;;;11.43;6.47;;;;;;;;;;4913180;29;20280;-82
2021/12/08 13:09:52;;;;;;;9.27;6.80;;;;;;;;;;4932531;29;20189;-82
2021/12/08 13:12:19;;;;;;;15.10;9.50;;;;;;;;;;4893655;29;20214;-82
2021/12/08 13:14:47;;;;;;;13.70;9.47;;;;;;;;;;4917498;29;20218;-82
2021/12/08 13:17:24;;;;;;;16.07;10.30;;;;;;;;;;4931153;29;20189;-82
2021/12/08 13:19:56;;;;;;;12.93;8.70;;;;;;;;;;4937020;29;20184;-82
2021/12/08 13:22:43;;;;;;;12.83;8.00;;;;;;;;;;4914849;29;20563;-82
2021/12/08 13:25:30;;;;;;;10.63;7.00;;;;;;;;;;4917031;29;20194;-82
2021/12/08 13:27:56;;;;;;;11.23;6.73;;;;;;;;;;4925428;29;20581;-82
2021/12/08 13:30:29;;;;;;;9.57;6.57;;;;;;;;;;4902527;29;20248;-84
2021/12/08 13:33:07;;;;;;;9.53;7.20;;;;;;;;;;4880728;29;20191;-82
2021/12/08 13:35:34;;;;;;;9.77;7.33;;;;;;;;;;4921065;29;20188;-82
2021/12/08 13:38:06;;;;;;;13.90;8.83;;;;;;;;;;4893671;29;20210;-81
2021/12/08 13:40:40;;;;;;;12.73;8.10;;;;;;;;;;4932773;29;20189;-82
2021/12/08 13:43:09;;;;;;;8.83;7.13;;;;;;;;;;4942471;29;20657;-82
2021/12/08 13:45:42;;;;;;;9.10;7.00;;;;;;;;;;4888942;29;20607;-81
2021/12/08 13:48:09;;;;;;;9.50;7.30;;;;;;;;;;4923800;29;20286;-82
2021/12/08 13:50:36;;;;;;;10.83;8.23;;;;;;;;;;4935715;29;20591;-81
2021/12/08 13:53:06;;;;;;;9.67;7.40;;;;;;;;;;4922033;29;20422;-82
2021/12/08 13:55:33;;;;;;;24.87;14.97;;;;;;;;;;4912753;29;20268;-82
2021/12/08 13:58:02;;;;;;;20.87;12.43;;;;;;;;;;4934284;29;20639;-83
2021/12/08 14:00:52;;;;;;;27.33;15.80;;;;;;;;;;4918005;29;20186;-82
2021/12/08 14:03:21;;;;;;;15.30;9.90;;;;;;;;;;4901616;29;20198;-82
2021/12/08 14:05:47;;;;;;;12.93;7.97;;;;;;;;;;4925881;29;20210;-82
2021/12/08 14:08:16;;;;;;;20.67;14.23;;;;;;;;;;4887651;29;20210;-82
2021/12/08 14:10:44;;;;;;;17.83;11.73;;;;;;;;;;4920410;29;20209;-83
2021/12/08 14:13:12;;;;;;;35.83;21.73;;;;;;;;;;4948084;29;20192;-82
2021/12/08 14:15:41;;;;;;;26.30;16.83;;;;;;;;;;4918603;29;20186;-82
2021/12/08 14:18:25;;;;;;;35.03;21.37;;;;;;;;;;4919882;29;20213;-82
2021/12/08 14:21:00;;;;;;;32.53;20.27;;;;;;;;;;4915898;29;20249;-82
2021/12/08 14:23:30;;;;;;;43.43;26.87;;;;;;;;;;4929689;29;20184;-82
2021/12/08 14:25:58;;;;;;;25.30;17.17;;;;;;;;;;4937505;29;20185;-82
2021/12/08 14:28:29;;;;;;;30.47;20.87;;;;;;;;;;4920297;29;20312;-82
2021/12/08 14:30:56;;;;;;;31.77;20.53;;;;;;;;;;4931834;29;20693;-83
2021/12/08 14:33:23;;;;;;;21.17;14.90;;;;;;;;;;4936178;29;20182;-81
2021/12/08 14:35:57;;;;;;;28.03;17.33;;;;;;;;;;4921070;29;20194;-82
2021/12/08 14:38:23;;;;;;;21.37;14.53;;;;;;;;;;4933253;29;20597;-86
2021/12/08 14:40:50;;;;;;;24.13;13.67;;;;;;;;;;4932332;29;20186;-83
2021/12/08 14:43:34;;;;;;;27.33;18.03;;;;;;;;;;4919654;29;20198;-83
2021/12/08 14:46:10;;;;;;;33.43;23.10;;;;;;;;;;4925896;29;20582;-81
2021/12/08 14:48:36;;;;;;;32.93;24.60;;;;;;;;;;4917135;29;20211;-81
2021/12/08 14:51:02;;;;;;;22.80;18.93;;;;;;;;;;4937436;29;20517;-81
2021/12/08 14:53:34;;;;;;;15.70;11.00;;;;;;;;;;4912464;29;20224;-81
2021/12/08 14:56:10;;;;;;;12.50;8.70;;;;;;;;;;4933175;29;20201;-82
2021/12/08 14:58:37;;;;;;;12.03;8.13;;;;;;;;;;4941963;29;20688;-82
2021/12/08 15:01:06;;;;;;;12.40;8.07;;;;;;;;;;4911641;29;20201;-81
2021/12/08 15:03:39;;;;;;;11.27;7.23;;;;;;;;;;4917666;29;20233;-83
2021/12/08 15:06:08;;;;;;;13.43;7.13;;;;;;;;;;4923392;29;20564;-84
2021/12/08 15:08:41;;;;;;;10.50;7.07;;;;;;;;;;4934198;29;20308;-82
2021/12/08 15:11:07;;;;;;;11.63;7.43;;;;;;;;;;4935725;29;20260;-83
2021/12/08 15:13:34;;;;;;;13.77;8.90;;;;;;;;;;4924126;29;20351;-82
2021/12/08 15:16:00;;;;;;;11.97;9.13;;;;;;;;;;4929377;29;20189;-84
2021/12/08 15:18:28;;;;;;;18.20;11.30;;;;;;;;;;4930433;29;20229;-83
2021/12/08 15:21:00;;;;;;;16.40;9.47;;;;;;;;;;4902807;29;20183;-83
2021/12/08 15:23:44;;;;;;;11.50;7.93;;;;;;;;;;4922506;29;20344;-81
2021/12/08 15:26:12;;;;;;;12.00;8.27;;;;;;;;;;4936049;29;20198;-83
2021/12/08 15:28:39;;;;;;;12.33;8.03;;;;;;;;;;4920684;29;20210;-83
2021/12/08 15:31:06;;;;;;;13.23;8.40;;;;;;;;;;4911602;29;20737;-82
2021/12/08 15:33:36;;;;;;;12.80;8.10;;;;;;;;;;4939505;29;20720;-81
2021/12/08 15:36:07;;;;;;;13.40;8.50;;;;;;;;;;4934959;29;20217;-81
2021/12/08 15:38:33;;;;;;;10.87;7.70;;;;;;;;;;4919361;29;20214;-84
2021/12/08 15:41:00;;;;;;;15.80;8.67;;;;;;;;;;4920722;29;20281;-82
2021/12/08 15:43:27;;;;;;;12.07;8.30;;;;;;;;;;4909261;29;20246;-82